Dades meteomassalio
Diari Summary for Maig 26, 2017 Units:  English    Metric   Both
« Previous Day
Next Day »
Diari Semanal Mensual Anual Personalitzat
  Maxima: Minima: Mijana:
Temperatura: TemperatureC °F 12.9 °F 23.2 °F
Rosada: DewpointC °F 4.8 °F 10 °F
Humitat: Humidity % 22 % 45 %
Velocitat del vent: WindSpeedKMH mph 0.0 mph 8.3 mph
Racha vent: WindSpeedGustKMH mph - -
Vent:- - ESE
Pressio: PressurehPa in 1010.0 in -
Pluja: 0.0 in    
Historical Graphs
 
 
Tabular Data for Maig 26, 2017
Time Temperature Dew Point Pressure Wind Wind Speed Wind Gust Humidity Rainfall Rate (Hourly) solar Conditions
TemperatureC °F DewpointC °F PressurehPa in Calm     Humidity % HourlyPrecipMM in SolarRadiationWatts/m^2 W/m2 Conditions
00:04 22.4 °F 6.6 °F 1012.4 in Calm     36 % 0.0 in 0.0 W/m2 CLR
00:09 22.1 °F 6.7 °F 1012.4 in Calm     37 % 0.0 in 0.0 W/m2 CLR
00:14 21.8 °F 6.4 °F 1012.4 in Calm     37 % 0.0 in 0.0 W/m2 CLR
00:19 21.4 °F 6.5 °F 1012.4 in Calm     38 % 0.0 in 0.0 W/m2 CLR
00:29 20.7 °F 7.3 °F 1012.4 in Calm     42 % 0.0 in 0.0 W/m2 CLR
00:34 20.4 °F 6.7 °F 1012.4 in Calm     41 % 0.0 in 0.0 W/m2 CLR
00:39 20.1 °F 6.4 °F 1012.4 in Calm     41 % 0.0 in 0.0 W/m2 CLR
00:44 20.1 °F 6.7 °F 1012.4 in Calm     42 % 0.0 in 0.0 W/m2 CLR
00:49 19.8 °F 6.9 °F 1012.8 in Calm     43 % 0.0 in 0.0 W/m2 CLR
00:54 19.5 °F 6.9 °F 1012.8 in Calm     44 % 0.0 in 0.0 W/m2 CLR
00:59 19.2 °F 7.0 °F 1012.8 in Calm     45 % 0.0 in 0.0 W/m2 CLR
01:04 19.0 °F 7.1 °F 1012.8 in Calm     46 % 0.0 in 0.0 W/m2 CLR
01:09 18.7 °F 6.8 °F 1012.8 in Calm     46 % 0.0 in 0.0 W/m2 CLR
01:14 18.4 °F 6.6 °F 1012.8 in Calm     46 % 0.0 in 0.0 W/m2 CLR
01:19 18.2 °F 6.7 °F 1012.8 in Calm     47 % 0.0 in 0.0 W/m2 CLR
01:24 18.1 °F 7.2 °F 1012.8 in Calm     49 % 0.0 in 0.0 W/m2 CLR
01:29 17.8 °F 6.9 °F 1012.8 in Calm     49 % 0.0 in 0.0 W/m2 CLR
01:34 17.7 °F 6.9 °F 1012.8 in Calm     49 % 0.0 in 0.0 W/m2 CLR
01:39 17.5 °F 6.3 °F 1012.8 in Calm     48 % 0.0 in 0.0 W/m2 CLR
01:44 17.4 °F 6.8 °F 1012.8 in Calm     50 % 0.0 in 0.0 W/m2 CLR
01:49 17.3 °F 6.8 °F 1012.8 in Calm     50 % 0.0 in 0.0 W/m2 CLR
01:54 17.1 °F 6.9 °F 1012.8 in Calm     51 % 0.0 in 0.0 W/m2 CLR
01:59 16.9 °F 6.7 °F 1012.8 in Calm     51 % 0.0 in 0.0 W/m2 CLR
02:04 16.7 °F 6.5 °F 1012.4 in Calm     51 % 0.0 in 0.0 W/m2 CLR
02:09 16.5 °F 6.9 °F 1012.4 in Calm     53 % 0.0 in 0.0 W/m2 CLR
02:14 16.4 °F 6.8 °F 1012.4 in Calm     53 % 0.0 in 0.0 W/m2 CLR
02:19 16.3 °F 6.7 °F 1012.4 in Calm     53 % 0.0 in 0.0 W/m2 CLR
02:24 16.1 °F 6.2 °F 1012.4 in Calm     52 % 0.0 in 0.0 W/m2 CLR
02:29 16.1 °F 6.5 °F 1012.4 in Calm     53 % 0.0 in 0.0 W/m2 CLR
02:30 16.1 °F 6.5 °F 1012.8 in Calm     53 % 0.0 in 0.0 W/m2 CLR
02:35 16.1 °F 6.4 °F 1012.4 in Calm     53 % 0.0 in 0.0 W/m2 CLR
02:40 15.9 °F 6.6 °F 1012.4 in Calm     54 % 0.0 in 0.0 W/m2 CLR
02:45 15.8 °F 6.6 °F 1012.4 in Calm     54 % 0.0 in 0.0 W/m2 CLR
02:50 15.7 °F 6.7 °F 1012.4 in Calm     55 % 0.0 in 0.0 W/m2 CLR
02:55 15.4 °F 6.4 °F 1012.8 in Calm     55 % 0.0 in 0.0 W/m2 CLR
03:00 15.4 °F 6.4 °F 1012.4 in Calm     55 % 0.0 in 0.0 W/m2 CLR
03:05 15.3 °F 6.3 °F 1012.4 in Calm     55 % 0.0 in 0.0 W/m2 CLR
03:10 15.1 °F 6.1 °F 1012.8 in Calm     55 % 0.0 in 0.0 W/m2 CLR
03:11 15.1 °F 6.4 °F 1012.4 in Calm     56 % 0.0 in 0.0 W/m2 CLR
03:16 15.1 °F 6.3 °F 1012.4 in Calm     56 % 0.0 in 0.0 W/m2 CLR
03:21 15.0 °F 6.3 °F 1012.8 in Calm     56 % 0.0 in 0.0 W/m2 CLR
03:26 14.9 °F 6.2 °F 1012.8 in Calm     56 % 0.0 in 0.0 W/m2 CLR
03:31 14.8 °F 6.4 °F 1012.8 in Calm     57 % 0.0 in 0.0 W/m2 CLR
03:41 14.6 °F 6.2 °F 1012.4 in Calm     57 % 0.0 in 0.0 W/m2 CLR
03:46 14.6 °F 5.9 °F 1012.8 in Calm     56 % 0.0 in 0.0 W/m2 CLR
03:51 14.7 °F 6.0 °F 1012.8 in Calm     56 % 0.0 in 0.0 W/m2 CLR
03:56 14.7 °F 6.0 °F 1012.4 in Calm     56 % 0.0 in 0.0 W/m2 CLR
04:01 14.6 °F 6.2 °F 1012.4 in Calm     57 % 0.0 in 0.0 W/m2 CLR
04:06 14.3 °F 5.9 °F 1012.8 in Calm     57 % 0.0 in 0.0 W/m2 CLR
04:11 14.2 °F 6.1 °F 1012.8 in Calm     58 % 0.0 in 0.0 W/m2 CLR
04:16 14.1 °F 6.2 °F 1012.8 in Calm     59 % 0.0 in 0.0 W/m2 CLR
04:21 13.9 °F 6.1 °F 1012.8 in Calm     59 % 0.0 in 0.0 W/m2 CLR
04:26 13.9 °F 6.0 °F 1012.8 in Calm     59 % 0.0 in 0.0 W/m2 CLR
04:31 13.8 °F 5.9 °F 1012.8 in Calm     59 % 0.0 in 0.0 W/m2 CLR
04:36 13.8 °F 5.9 °F 1012.8 in Calm     59 % 0.0 in 0.0 W/m2 CLR
04:41 13.9 °F 5.5 °F 1012.8 in Calm     57 % 0.0 in 0.0 W/m2 CLR
04:46 13.9 °F 5.8 °F 1012.8 in Calm     58 % 0.0 in 0.0 W/m2 CLR
04:51 13.9 °F 5.8 °F 1012.8 in Calm     58 % 0.0 in 0.0 W/m2 CLR
04:56 13.9 °F 5.8 °F 1012.8 in Calm     58 % 0.0 in 0.0 W/m2 CLR
05:01 13.9 °F 5.8 °F 1012.8 in Calm     58 % 0.0 in 0.0 W/m2 CLR
05:06 13.8 °F 5.7 °F 1012.8 in Calm     58 % 0.0 in 0.0 W/m2 CLR
05:11 13.7 °F 5.6 °F 1012.8 in Calm     58 % 0.0 in 0.0 W/m2 CLR
05:16 13.7 °F 5.6 °F 1012.8 in Calm     58 % 0.0 in 0.0 W/m2 CLR
05:21 13.8 °F 5.7 °F 1012.8 in Calm     58 % 0.0 in 0.0 W/m2 CLR
05:26 13.7 °F 5.3 °F 1012.8 in Calm     57 % 0.0 in 0.0 W/m2 CLR
05:31 13.6 °F 5.2 °F 1012.8 in Calm     57 % 0.0 in 0.0 W/m2 CLR
05:36 13.6 °F 5.2 °F 1012.8 in Calm     57 % 0.0 in 0.0 W/m2 CLR
05:41 13.6 °F 5.4 °F 1012.8 in Calm     58 % 0.0 in 0.0 W/m2 CLR
05:46 13.5 °F 5.4 °F 1012.4 in Calm     58 % 0.0 in 0.0 W/m2 CLR
05:51 13.4 °F 5.3 °F 1012.8 in Calm     58 % 0.0 in 0.0 W/m2 CLR
05:56 13.2 °F 5.4 °F 1012.8 in Calm     59 % 0.0 in 0.0 W/m2 CLR
06:01 13.1 °F 5.3 °F 1012.8 in Calm     59 % 0.0 in 0.0 W/m2 CLR
06:06 13.1 °F 5.3 °F 1012.8 in Calm     59 % 0.0 in 0.0 W/m2 CLR
06:11 13.1 °F 5.4 °F 1012.8 in Calm     60 % 0.0 in 0.0 W/m2 CLR
06:17 12.9 °F 5.3 °F 1012.8 in Calm     60 % 0.0 in 0.0 W/m2 CLR
06:22 12.9 °F 5.1 °F 1012.8 in Calm     59 % 0.0 in 0.0 W/m2 CLR
06:27 12.9 °F 5.1 °F 1012.8 in Calm     59 % 0.0 in 0.0 W/m2 OVC
06:32 12.9 °F 5.1 °F 1012.8 in Calm     59 % 0.0 in 5.0 W/m2 OVC
06:37 12.9 °F 5.3 °F 1012.8 in Calm     60 % 0.0 in 7.0 W/m2 BKN
06:42 12.9 °F 5.1 °F 1012.8 in Calm     59 % 0.0 in 11.0 W/m2 BKN
06:47 13.1 °F 5.0 °F 1012.8 in Calm     58 % 0.0 in 12.0 W/m2 BKN
06:52 13.1 °F 4.8 °F 1012.8 in Calm     57 % 0.0 in 16.0 W/m2 BKN
06:57 13.2 °F 5.1 °F 1012.8 in Calm     58 % 0.0 in 18.0 W/m2 BKN
07:02 13.1 °F 5.0 °F 1012.8 in Calm     58 % 0.0 in 23.0 W/m2 BKN
07:07 13.1 °F 5.2 °F 1012.8 in Calm     59 % 0.0 in 28.0 W/m2 BKN
07:12 13.1 °F 5.3 °F 1012.8 in Calm     59 % 0.0 in 32.0 W/m2 BKN
07:17 13.2 °F 5.3 °F 1012.8 in Calm     59 % 0.0 in 44.0 W/m2 BKN
07:22 13.2 °F 5.3 °F 1012.8 in Calm     59 % 0.0 in 54.0 W/m2 SCT
07:27 13.3 °F 5.5 °F 1013.1 in Calm     59 % 0.0 in 65.0 W/m2 SCT
07:32 13.7 °F 5.8 °F 1013.1 in Calm     59 % 0.0 in 77.0 W/m2 FEW
07:37 14.0 °F 5.8 °F 1013.1 in Calm     58 % 0.0 in 90.0 W/m2 FEW
07:42 14.4 °F 6.0 °F 1013.1 in Calm     57 % 0.0 in 104.0 W/m2 CLR
07:47 14.8 °F 6.1 °F 1013.1 in Calm     56 % 0.0 in 120.0 W/m2 CLR
07:52 15.2 °F 5.9 °F 1013.1 in Calm     54 % 0.0 in 135.0 W/m2 CLR
07:57 15.4 °F 5.9 °F 1013.1 in Calm     53 % 0.0 in 151.0 W/m2 CLR
08:02 15.7 °F 6.2 °F 1013.1 in Calm     53 % 0.0 in 167.0 W/m2 CLR
08:07 16.1 °F 6.2 °F 1013.1 in Calm     52 % 0.0 in 185.0 W/m2 CLR
08:12 16.5 °F 6.1 °F 1013.1 in Calm     50 % 0.0 in 200.0 W/m2 CLR
08:17 16.9 °F 6.1 °F 1013.1 in Calm     49 % 0.0 in 216.0 W/m2 CLR
08:22 17.3 °F 6.2 °F 1013.1 in Calm     48 % 0.0 in 232.0 W/m2 CLR
08:23 17.4 °F 6.3 °F 1013.1 in Calm     48 % 0.0 in 237.0 W/m2 CLR
08:28 18.0 °F 6.8 °F 1013.1 in Calm     48 % 0.0 in 251.0 W/m2 CLR
08:33 18.6 °F 7.1 °F 1013.1 in Calm     47 % 0.0 in 265.0 W/m2 CLR
08:38 19.2 °F 6.7 °F 1013.1 in Calm     44 % 0.0 in 279.0 W/m2 CLR
08:43 19.7 °F 7.1 °F 1013.1 in Calm     44 % 0.0 in 299.0 W/m2 CLR
08:48 20.2 °F 6.9 °F 1013.1 in Calm     42 % 0.0 in 313.0 W/m2 CLR
08:53 20.5 °F 6.4 °F 1013.1 in Calm     40 % 0.0 in 327.0 W/m2 CLR
08:58 21.0 °F 6.5 °F 1013.1 in Calm     39 % 0.0 in 343.0 W/m2 CLR
09:03 21.6 °F 6.6 °F 1013.1 in Calm     38 % 0.0 in 362.0 W/m2 CLR
09:08 22.1 °F 7.5 °F 1013.1 in Calm     39 % 0.0 in 376.0 W/m2 CLR
09:13 22.8 °F 6.9 °F 1013.4 in Calm     36 % 0.0 in 390.0 W/m2 CLR
09:18 23.3 °F 6.9 °F 1013.4 in Calm     35 % 0.0 in 404.0 W/m2 CLR
09:23 23.7 °F 6.4 °F 1013.1 in ENE 5.6 mph 5.6 mph 33 % 0.0 in 422.0 W/m2 CLR
09:28 24.1 °F 6.8 °F 1013.1 in Calm     33 % 0.0 in 436.0 W/m2 CLR
09:33 24.2 °F 7.3 °F 1013.1 in Calm     34 % 0.0 in 452.0 W/m2 CLR
09:38 24.3 °F 7.4 °F 1013.1 in Calm     34 % 0.0 in 466.0 W/m2 CLR
09:43 24.4 °F 7.9 °F 1013.1 in Calm     35 % 0.0 in 478.0 W/m2 CLR
09:48 24.4 °F 8.0 °F 1013.1 in ENE 5.6 mph 5.6 mph 35 % 0.0 in 496.0 W/m2 CLR
09:53 24.6 °F 8.1 °F 1013.1 in ENE 5.6 mph 5.6 mph 35 % 0.0 in 512.0 W/m2 CLR
09:58 24.8 °F 8.7 °F 1013.1 in ENE 6.4 mph 6.4 mph 36 % 0.0 in 522.0 W/m2 CLR
10:03 25.1 °F 8.9 °F 1012.8 in ENE 9.3 mph 9.3 mph 36 % 0.0 in 538.0 W/m2 CLR
10:08 25.2 °F 9.1 °F 1012.8 in ENE 8.0 mph 8.0 mph 36 % 0.0 in 554.0 W/m2 CLR
10:13 25.6 °F 9.4 °F 1012.8 in ENE 7.4 mph 7.4 mph 36 % 0.0 in 566.0 W/m2 CLR
10:18 25.9 °F 9.3 °F 1012.8 in ENE 7.4 mph 7.4 mph 35 % 0.0 in 578.0 W/m2 CLR
10:23 26.1 °F 9.9 °F 1012.8 in ENE 5.6 mph 5.6 mph 36 % 0.0 in 596.0 W/m2 CLR
10:28 26.2 °F 10.7 °F 1012.8 in NE 9.3 mph 9.3 mph 38 % 0.0 in 608.0 W/m2 CLR
10:33 26.3 °F 10.9 °F 1012.8 in ENE 11.1 mph 11.1 mph 38 % 0.0 in 624.0 W/m2 CLR
10:36 26.4 °F 11.0 °F 1012.8 in ENE 7.4 mph 7.4 mph 38 % 0.0 in 628.0 W/m2 CLR
10:41 26.6 °F 10.7 °F 1012.8 in ENE 9.3 mph 9.3 mph 37 % 0.0 in 642.0 W/m2 CLR
10:46 26.7 °F 10.3 °F 1012.8 in NE 11.3 mph 11.3 mph 36 % 0.0 in 656.0 W/m2 CLR
10:51 26.8 °F 10.1 °F 1012.8 in NE 11.1 mph 11.1 mph 35 % 0.0 in 668.0 W/m2 CLR
10:56 27.0 °F 9.8 °F 1012.8 in NNE 11.1 mph 11.1 mph 34 % 0.0 in 680.0 W/m2 CLR
11:01 27.2 °F 10.0 °F 1012.8 in NE 8.0 mph 8.0 mph 34 % 0.0 in 693.0 W/m2 CLR
11:06 27.6 °F 9.4 °F 1012.8 in ENE 9.3 mph 9.3 mph 32 % 0.0 in 703.0 W/m2 CLR
11:11 27.9 °F 8.7 °F 1012.8 in ESE 9.3 mph 9.3 mph 30 % 0.0 in 717.0 W/m2 CLR
11:16 28.0 °F 9.8 °F 1012.8 in SE 9.3 mph 9.3 mph 32 % 0.0 in 728.0 W/m2 CLR
11:21 28.3 °F 9.6 °F 1012.4 in NE 7.4 mph 7.4 mph 31 % 0.0 in 737.0 W/m2 CLR
11:26 28.8 °F 10.4 °F 1012.4 in North 7.4 mph 7.4 mph 32 % 0.0 in 749.0 W/m2 CLR
11:31 28.9 °F 11.1 °F 1012.4 in ENE 11.1 mph 11.1 mph 33 % 0.0 in 761.0 W/m2 CLR
11:36 29.0 °F 11.6 °F 1012.4 in ENE 13.0 mph 13.0 mph 34 % 0.0 in 772.0 W/m2 CLR
11:41 29.3 °F 11.3 °F 1012.4 in ENE 9.3 mph 9.3 mph 33 % 0.0 in 782.0 W/m2 CLR
11:46 29.6 °F 9.7 °F 1012.4 in SE 13.0 mph 13.0 mph 29 % 0.0 in 793.0 W/m2 CLR
11:51 29.7 °F 9.7 °F 1012.4 in ENE 11.1 mph 11.1 mph 29 % 0.0 in 800.0 W/m2 CLR
11:56 29.8 °F 9.8 °F 1012.4 in East 8.0 mph 8.0 mph 29 % 0.0 in 812.0 W/m2 CLR
12:01 29.6 °F 10.2 °F 1012.4 in East 5.6 mph 5.6 mph 30 % 0.0 in 819.0 W/m2 CLR
12:06 29.8 °F 10.9 °F 1012.4 in ENE 7.4 mph 7.4 mph 31 % 0.0 in 824.0 W/m2 CLR
12:11 30.1 °F 11.1 °F 1012.1 in ENE 8.0 mph 8.0 mph 31 % 0.0 in 831.0 W/m2 CLR
12:16 30.3 °F 11.3 °F 1012.1 in Calm     31 % 0.0 in 846.0 W/m2 CLR
12:21 30.4 °F 11.9 °F 1012.1 in ENE 13.0 mph 13.0 mph 32 % 0.0 in 849.0 W/m2 CLR
12:26 30.8 °F 12.7 °F 1012.1 in NNE 13.0 mph 13.0 mph 33 % 0.0 in 860.0 W/m2 CLR
12:31 30.8 °F 12.7 °F 1011.7 in ENE 13.0 mph 13.0 mph 33 % 0.0 in 863.0 W/m2 CLR
12:36 30.8 °F 12.2 °F 1011.7 in ENE 18.5 mph 18.5 mph 32 % 0.0 in 874.0 W/m2 CLR
12:41 31.1 °F 12.9 °F 1011.7 in ENE 25.7 mph 25.7 mph 33 % 0.0 in 884.0 W/m2 CLR
12:47 30.8 °F 13.1 °F 1011.7 in NE 18.5 mph 18.5 mph 34 % 0.0 in 896.0 W/m2 CLR
12:51 31.0 °F 13.3 °F 1011.4 in ENE 24.1 mph 24.1 mph 34 % 0.0 in 907.0 W/m2 CLR
12:57 30.9 °F 13.7 °F 1011.4 in ESE 18.5 mph 18.5 mph 35 % 0.0 in 918.0 W/m2 CLR
13:02 30.9 °F 13.3 °F 1011.4 in ENE 16.7 mph 16.7 mph 34 % 0.0 in 930.0 W/m2 CLR
13:07 31.2 °F 13.0 °F 1011.4 in ESE 18.5 mph 18.5 mph 33 % 0.0 in 958.0 W/m2 CLR
13:12 31.4 °F 9.0 °F 1011.4 in Calm     25 % 0.0 in 963.0 W/m2 CLR
13:17 31.7 °F 8.1 °F 1011.4 in South 13.0 mph 13.0 mph 23 % 0.0 in 969.0 W/m2 CLR
13:22 31.8 °F 8.1 °F 1011.4 in ESE 8.0 mph 8.0 mph 23 % 0.0 in 949.0 W/m2 CLR
13:27 32.2 °F 11.4 °F 1011.4 in ESE 17.7 mph 17.7 mph 28 % 0.0 in 940.0 W/m2 CLR
13:32 31.9 °F 13.6 °F 1011.4 in East 18.5 mph 18.5 mph 33 % 0.0 in 939.0 W/m2 CLR
13:37 31.8 °F 8.1 °F 1011.4 in South 13.0 mph 13.0 mph 23 % 0.0 in 937.0 W/m2 CLR
13:42 32.3 °F 8.5 °F 1011.4 in SSE 14.8 mph 14.8 mph 23 % 0.0 in 935.0 W/m2 CLR
13:47 32.1 °F 8.3 °F 1011.1 in South 20.9 mph 20.9 mph 23 % 0.0 in 933.0 W/m2 CLR
13:52 32.1 °F 8.3 °F 1011.1 in SE 5.6 mph 5.6 mph 23 % 0.0 in 930.0 W/m2 CLR
13:57 32.1 °F 9.0 °F 1011.1 in South 14.8 mph 14.8 mph 24 % 0.0 in 925.0 W/m2 CLR
14:02 32.3 °F 9.2 °F 1011.1 in SE 24.1 mph 24.1 mph 24 % 0.0 in 926.0 W/m2 CLR
14:07 32.7 °F 8.8 °F 1011.1 in SSE 12.9 mph 12.9 mph 23 % 0.0 in 925.0 W/m2 CLR
14:12 32.7 °F 8.2 °F 1011.1 in SSW 13.0 mph 13.0 mph 22 % 0.0 in 926.0 W/m2 CLR
14:17 32.6 °F 9.4 °F 1011.1 in East 16.7 mph 16.7 mph 24 % 0.0 in 918.0 W/m2 CLR
14:22 32.2 °F 11.9 °F 1011.1 in SE 27.8 mph 27.8 mph 29 % 0.0 in 912.0 W/m2 CLR
14:27 32.1 °F 12.8 °F 1011.1 in SE 31.5 mph 31.5 mph 31 % 0.0 in 912.0 W/m2 CLR
14:32 31.6 °F 14.7 °F 1011.1 in SE 14.8 mph 14.8 mph 36 % 0.0 in 909.0 W/m2 CLR
14:37 31.5 °F 14.2 °F 1011.1 in SE 25.9 mph 25.9 mph 35 % 0.0 in 909.0 W/m2 CLR
14:42 31.3 °F 14.0 °F 1011.1 in ESE 25.9 mph 25.9 mph 35 % 0.0 in 902.0 W/m2 CLR
14:47 31.1 °F 14.3 °F 1010.7 in ESE 25.9 mph 25.9 mph 36 % 0.0 in 902.0 W/m2 CLR
14:52 30.9 °F 14.6 °F 1010.7 in ESE 22.5 mph 22.5 mph 37 % 0.0 in 893.0 W/m2 CLR
14:57 31.1 °F 14.2 °F 1010.7 in SE 24.1 mph 24.1 mph 36 % 0.0 in 889.0 W/m2 CLR
15:02 31.1 °F 13.8 °F 1010.7 in ESE 20.4 mph 20.4 mph 35 % 0.0 in 886.0 W/m2 CLR
15:07 31.2 °F 13.9 °F 1010.7 in SE 24.1 mph 24.1 mph 35 % 0.0 in 881.0 W/m2 CLR
15:17 31.1 °F 13.8 °F 1010.7 in SE 27.8 mph 27.8 mph 35 % 0.0 in 867.0 W/m2 CLR
15:22 31.3 °F 14.0 °F 1010.7 in SE 25.9 mph 25.9 mph 35 % 0.0 in 861.0 W/m2 CLR
15:27 31.4 °F 13.7 °F 1010.4 in SSE 29.6 mph 29.6 mph 34 % 0.0 in 858.0 W/m2 CLR
15:32 31.3 °F 14.0 °F 1010.4 in SE 29.0 mph 29.0 mph 35 % 0.0 in 851.0 W/m2 CLR
15:37 31.3 °F 13.6 °F 1010.4 in East 22.2 mph 22.2 mph 34 % 0.0 in 844.0 W/m2 CLR
15:38 31.3 °F 13.6 °F 1010.4 in ESE 22.2 mph 22.2 mph 34 % 0.0 in 844.0 W/m2 CLR
15:43 31.7 °F 13.9 °F 1010.4 in ESE 20.4 mph 20.4 mph 34 % 0.0 in 837.0 W/m2 CLR
15:48 31.6 °F 13.8 °F 1010.4 in ESE 25.9 mph 25.9 mph 34 % 0.0 in 828.0 W/m2 CLR
15:53 31.7 °F 14.3 °F 1010.4 in ESE 22.5 mph 22.5 mph 35 % 0.0 in 821.0 W/m2 CLR
15:58 31.4 °F 13.2 °F 1010.0 in SSE 27.8 mph 27.8 mph 33 % 0.0 in 814.0 W/m2 CLR
16:03 31.2 °F 13.9 °F 1010.4 in SE 22.2 mph 22.2 mph 35 % 0.0 in 805.0 W/m2 CLR
16:04 31.3 °F 14.1 °F 1010.0 in East 18.5 mph 18.5 mph 35 % 0.0 in 798.0 W/m2 CLR
16:09 31.3 °F 14.9 °F 1010.0 in SSE 20.4 mph 20.4 mph 37 % 0.0 in 791.0 W/m2 CLR
16:14 31.6 °F 13.8 °F 1010.0 in ESE 13.0 mph 13.0 mph 34 % 0.0 in 779.0 W/m2 CLR
16:19 31.3 °F 14.9 °F 1010.0 in ESE 16.7 mph 16.7 mph 37 % 0.0 in 768.0 W/m2 CLR
16:24 31.4 °F 14.5 °F 1010.0 in SSE 31.5 mph 31.5 mph 36 % 0.0 in 759.0 W/m2 CLR
16:29 31.3 °F 14.1 °F 1010.0 in ESE 25.9 mph 25.9 mph 35 % 0.0 in 747.0 W/m2 CLR
16:34 31.4 °F 13.2 °F 1010.0 in ESE 29.0 mph 29.0 mph 33 % 0.0 in 744.0 W/m2 CLR
16:39 31.2 °F 12.6 °F 1010.0 in SE 20.4 mph 20.4 mph 32 % 0.0 in 733.0 W/m2 CLR
16:44 31.3 °F 12.7 °F 1010.0 in SSE 29.6 mph 29.6 mph 32 % 0.0 in 724.0 W/m2 CLR
16:49 31.4 °F 12.7 °F 1010.0 in SSE 24.1 mph 24.1 mph 32 % 0.0 in 715.0 W/m2 CLR
16:54 31.4 °F 12.2 °F 1010.0 in SE 25.9 mph 25.9 mph 31 % 0.0 in 700.0 W/m2 CLR
16:59 31.7 °F 12.5 °F 1010.0 in SE 35.2 mph 35.2 mph 31 % 0.0 in 686.0 W/m2 CLR
17:04 31.7 °F 12.9 °F 1010.0 in SSE 20.4 mph 20.4 mph 32 % 0.0 in 671.0 W/m2 CLR
17:09 31.6 °F 13.8 °F 1010.0 in ESE 25.7 mph 25.7 mph 34 % 0.0 in 668.0 W/m2 CLR
17:14 31.3 °F 13.1 °F 1010.0 in SE 24.1 mph 24.1 mph 33 % 0.0 in 626.0 W/m2 CLR
17:19 31.1 °F 12.9 °F 1010.0 in ESE 29.6 mph 29.6 mph 33 % 0.0 in 635.0 W/m2 CLR
17:24 31.3 °F 13.6 °F 1010.0 in SE 31.5 mph 31.5 mph 34 % 0.0 in 628.0 W/m2 CLR
17:29 31.2 °F 13.0 °F 1010.0 in SSE 25.9 mph 25.9 mph 33 % 0.0 in 621.0 W/m2 CLR
17:34 31.2 °F 13.5 °F 1010.0 in SE 20.9 mph 20.9 mph 34 % 0.0 in 612.0 W/m2 CLR
17:39 31.4 °F 14.1 °F 1010.0 in SE 16.7 mph 16.7 mph 35 % 0.0 in 559.0 W/m2 CLR
17:44 31.5 °F 12.3 °F 1010.0 in SSE 22.2 mph 22.2 mph 31 % 0.0 in 592.0 W/m2 CLR
17:49 31.3 °F 11.7 °F 1010.0 in SE 25.9 mph 25.9 mph 30 % 0.0 in 577.0 W/m2 CLR
17:54 31.2 °F 11.6 °F 1010.0 in SSE 18.5 mph 18.5 mph 30 % 0.0 in 559.0 W/m2 CLR
17:59 31.2 °F 11.6 °F 1010.0 in SE 22.2 mph 22.2 mph 30 % 0.0 in 540.0 W/m2 CLR
18:04 31.2 °F 11.0 °F 1010.4 in South 24.1 mph 24.1 mph 29 % 0.0 in 466.0 W/m2 CLR
18:09 30.9 °F 10.8 °F 1010.4 in SSW 24.1 mph 24.1 mph 29 % 0.0 in 116.0 W/m2 CLR
18:14 30.5 °F 10.4 °F 1010.4 in South 20.4 mph 20.4 mph 29 % 0.0 in 88.0 W/m2 CLR
18:19 30.2 °F 10.2 °F 1010.4 in SSW 25.9 mph 25.9 mph 29 % 0.0 in 95.0 W/m2 CLR
18:24 30.0 °F 10.6 °F 1010.4 in South 18.5 mph 18.5 mph 30 % 0.0 in 104.0 W/m2 CLR
18:30 29.8 °F 10.4 °F 1010.4 in South 18.5 mph 18.5 mph 30 % 0.0 in 111.0 W/m2 CLR
18:35 29.7 °F 10.8 °F 1010.4 in South 14.8 mph 14.8 mph 31 % 0.0 in 111.0 W/m2 CLR
18:40 29.6 °F 10.6 °F 1010.4 in South 18.5 mph 18.5 mph 31 % 0.0 in 102.0 W/m2 CLR
18:45 29.4 °F 10.9 °F 1010.7 in South 18.5 mph 18.5 mph 32 % 0.0 in 90.0 W/m2 CLR
18:50 29.1 °F 11.2 °F 1010.7 in South 20.4 mph 20.4 mph 33 % 0.0 in 81.0 W/m2 CLR
18:55 28.8 °F 11.4 °F 1011.1 in SSW 29.0 mph 29.0 mph 34 % 0.0 in 70.0 W/m2 FEW
19:00 28.4 °F 11.5 °F 1011.1 in SSW 20.4 mph 20.4 mph 35 % 0.0 in 63.0 W/m2 FEW
19:05 28.2 °F 11.3 °F 1011.1 in South 16.7 mph 16.7 mph 35 % 0.0 in 56.0 W/m2 SCT
19:10 28.1 °F 11.6 °F 1011.4 in SSW 18.5 mph 18.5 mph 36 % 0.0 in 49.0 W/m2 SCT
19:15 27.9 °F 12.3 °F 1011.4 in SSW 18.5 mph 18.5 mph 38 % 0.0 in 42.0 W/m2 SCT
19:20 27.7 °F 12.5 °F 1011.1 in SSW 14.8 mph 14.8 mph 39 % 0.0 in 39.0 W/m2 BKN
19:25 27.6 °F 12.3 °F 1011.1 in SSW 20.4 mph 20.4 mph 39 % 0.0 in 35.0 W/m2 BKN
19:30 27.4 °F 12.2 °F 1010.7 in South 11.1 mph 11.1 mph 39 % 0.0 in 32.0 W/m2 BKN
19:35 27.2 °F 12.4 °F 1010.7 in South 24.1 mph 24.1 mph 40 % 0.0 in 30.0 W/m2 BKN
19:40 27.1 °F 12.7 °F 1010.7 in SSE 25.9 mph 25.9 mph 41 % 0.0 in 30.0 W/m2 BKN
19:45 26.9 °F 12.5 °F 1010.4 in SSE 29.6 mph 29.6 mph 41 % 0.0 in 30.0 W/m2 BKN
19:50 26.8 °F 12.4 °F 1010.4 in SE 18.5 mph 18.5 mph 41 % 0.0 in 32.0 W/m2 BKN
19:55 26.8 °F 12.4 °F 1010.4 in SSE 25.7 mph 25.7 mph 41 % 0.0 in 35.0 W/m2 BKN
20:00 26.6 °F 12.2 °F 1010.0 in SE 31.5 mph 31.5 mph 41 % 0.0 in 39.0 W/m2 BKN
20:05 26.4 °F 12.1 °F 1010.0 in SSE 18.5 mph 18.5 mph 41 % 0.0 in 46.0 W/m2 BKN
20:06 26.4 °F 12.1 °F 1010.0 in SE 19.3 mph 19.3 mph 41 % 0.0 in 47.0 W/m2 BKN
20:11 26.4 °F 11.7 °F 1010.0 in South 25.9 mph 25.9 mph 40 % 0.0 in 67.0 W/m2 SCT
20:16 26.4 °F 11.3 °F 1010.0 in SSE 24.1 mph 24.1 mph 39 % 0.0 in 109.0 W/m2 FEW
20:21 26.4 °F 13.2 °F 1010.0 in ESE 18.5 mph 18.5 mph 44 % 0.0 in 109.0 W/m2 CLR
20:26 25.9 °F 14.1 °F 1010.0 in East 13.0 mph 13.0 mph 48 % 0.0 in 104.0 W/m2 CLR
20:31 25.7 °F 14.2 °F 1010.4 in ESE 5.6 mph 5.6 mph 49 % 0.0 in 104.0 W/m2 CLR
20:36 25.6 °F 14.4 °F 1010.4 in Calm     50 % 0.0 in 116.0 W/m2 CLR
20:41 25.3 °F 15.1 °F 1010.4 in SE 9.3 mph 9.3 mph 53 % 0.0 in 125.0 W/m2 CLR
20:46 24.9 °F 15.3 °F 1010.4 in ESE 7.4 mph 7.4 mph 55 % 0.0 in 116.0 W/m2 CLR
20:51 24.7 °F 15.1 °F 1011.1 in Calm     55 % 0.0 in 95.0 W/m2 CLR
21:01 24.5 °F 15.2 °F 1011.1 in Calm     56 % 0.0 in 56.0 W/m2 SCT
21:06 24.3 °F 15.0 °F 1011.1 in East 5.6 mph 5.6 mph 56 % 0.0 in 33.0 W/m2 BKN
21:11 24.3 °F 15.2 °F 1011.4 in Calm     57 % 0.0 in 16.0 W/m2 BKN
21:16 24.0 °F 15.5 °F 1011.4 in ENE 5.6 mph 5.6 mph 59 % 0.0 in 5.0 W/m2 OVC
21:21 23.7 °F 15.5 °F 1011.7 in Calm     60 % 0.0 in 0.0 W/m2 OVC
21:26 23.4 °F 15.4 °F 1011.7 in ENE 5.6 mph 5.6 mph 61 % 0.0 in 0.0 W/m2 OVC
21:31 23.1 °F 15.7 °F 1011.7 in Calm     63 % 0.0 in 0.0 W/m2 CLR
21:36 22.8 °F 15.7 °F 1011.7 in Calm     64 % 0.0 in 0.0 W/m2 CLR
21:41 22.7 °F 15.5 °F 1011.7 in Calm     64 % 0.0 in 0.0 W/m2 CLR
21:46 22.4 °F 15.6 °F 1011.7 in Calm     65 % 0.0 in 0.0 W/m2 CLR
21:51 22.3 °F 15.6 °F 1011.7 in Calm     66 % 0.0 in 0.0 W/m2 CLR
21:56 22.1 °F 15.7 °F 1012.1 in Calm     67 % 0.0 in 0.0 W/m2 CLR
22:01 22.0 °F 15.8 °F 1012.1 in Calm     68 % 0.0 in 0.0 W/m2 CLR
22:06 21.8 °F 15.7 °F 1012.1 in Calm     68 % 0.0 in 0.0 W/m2 CLR
22:11 21.7 °F 15.8 °F 1012.4 in Calm     69 % 0.0 in 0.0 W/m2 CLR
22:16 21.6 °F 15.8 °F 1012.4 in Calm     70 % 0.0 in 0.0 W/m2 CLR
22:21 21.4 °F 15.7 °F 1012.4 in Calm     70 % 0.0 in 0.0 W/m2 CLR
22:26 21.3 °F 15.8 °F 1012.4 in Calm     71 % 0.0 in 0.0 W/m2 CLR
22:31 21.3 °F 15.8 °F 1012.4 in Calm     71 % 0.0 in 0.0 W/m2 CLR
22:36 21.3 °F 15.8 °F 1012.8 in Calm     71 % 0.0 in 0.0 W/m2 CLR
22:37 21.3 °F 15.8 °F 1012.8 in Calm     71 % 0.0 in 0.0 W/m2 CLR
22:42 21.3 °F 15.6 °F 1012.8 in Calm     70 % 0.0 in 0.0 W/m2 CLR
22:47 21.3 °F 15.6 °F 1012.8 in Calm     70 % 0.0 in 0.0 W/m2 CLR
22:52 21.4 °F 15.4 °F 1012.8 in Calm     69 % 0.0 in 0.0 W/m2 CLR
22:57 21.4 °F 15.4 °F 1012.8 in Calm     69 % 0.0 in 0.0 W/m2 CLR
23:02 21.3 °F 15.2 °F 1012.8 in Calm     68 % 0.0 in 0.0 W/m2 CLR
23:07 21.3 °F 15.2 °F 1013.1 in Calm     68 % 0.0 in 0.0 W/m2 CLR
23:12 21.3 °F 15.1 °F 1013.1 in Calm     68 % 0.0 in 0.0 W/m2 CLR
23:17 21.2 °F 15.3 °F 1013.1 in Calm     69 % 0.0 in 0.0 W/m2 CLR
23:22 20.9 °F 15.2 °F 1012.8 in ESE 1.6 mph 1.6 mph 70 % 0.0 in 0.0 W/m2 CLR
23:27 20.7 °F 15.3 °F 1012.8 in Calm     71 % 0.0 in 0.0 W/m2 CLR
23:32 20.6 °F 15.2 °F 1012.8 in Calm     71 % 0.0 in 0.0 W/m2 CLR
23:37 20.6 °F 15.1 °F 1012.8 in Calm     71 % 0.0 in 0.0 W/m2 CLR
23:42 20.4 °F 15.0 °F 1012.8 in Calm     71 % 0.0 in 0.0 W/m2 CLR
23:47 20.3 °F 14.9 °F 1012.8 in Calm     71 % 0.0 in 0.0 W/m2 CLR
23:52 20.3 °F 14.8 °F 1012.8 in Calm     71 % 0.0 in 0.0 W/m2 CLR
23:57 20.2 °F 14.7 °F 1013.1 in Calm     71 % 0.0 in 0.0 W/m2 CLR
Lo Temps de Massalio
Compliments of Weather Underground - 1.25 mb